sensor_id;sensor_type;location;lat;lon;timestamp;pressure;altitude;pressure_sealevel;temperature;humidity
79131;BME280;70394;45.194;9.142;2023-07-24T00:00:18;100428.25;;;28.25;47.15
79131;BME280;70394;45.194;9.142;2023-07-24T00:02:44;100423.03;;;28.24;46.68
79131;BME280;70394;45.194;9.142;2023-07-24T00:05:09;100424.53;;;28.26;46.92
79131;BME280;70394;45.194;9.142;2023-07-24T00:07:35;100429.28;;;28.24;46.59
79131;BME280;70394;45.194;9.142;2023-07-24T00:10:01;100422.00;;;28.25;47.09
79131;BME280;70394;45.194;9.142;2023-07-24T00:12:26;100425.56;;;28.25;46.49
79131;BME280;70394;45.194;9.142;2023-07-24T00:14:52;100426.06;;;28.29;46.81
79131;BME280;70394;45.194;9.142;2023-07-24T00:17:18;100423.34;;;28.29;46.74
79131;BME280;70394;45.194;9.142;2023-07-24T00:19:43;100424.22;;;28.29;46.61
79131;BME280;70394;45.194;9.142;2023-07-24T00:22:08;100416.06;;;28.29;46.78
79131;BME280;70394;45.194;9.142;2023-07-24T00:24:34;100407.09;;;28.29;46.79
79131;BME280;70394;45.194;9.142;2023-07-24T00:26:59;100400.81;;;28.28;46.86
79131;BME280;70394;45.194;9.142;2023-07-24T00:29:25;100397.25;;;28.28;46.74
79131;BME280;70394;45.194;9.142;2023-07-24T00:31:50;100405.03;;;28.31;46.94
79131;BME280;70394;45.194;9.142;2023-07-24T00:34:15;100403.19;;;28.31;46.72
79131;BME280;70394;45.194;9.142;2023-07-24T00:36:41;100395.41;;;28.28;47.22
79131;BME280;70394;45.194;9.142;2023-07-24T00:39:06;100398.78;;;28.30;46.76
79131;BME280;70394;45.194;9.142;2023-07-24T00:41:32;100402.69;;;28.28;47.02
79131;BME280;70394;45.194;9.142;2023-07-24T00:43:57;100408.59;;;28.31;46.62
79131;BME280;70394;45.194;9.142;2023-07-24T00:46:23;100408.59;;;28.31;47.15
79131;BME280;70394;45.194;9.142;2023-07-24T00:48:49;100414.38;;;28.28;47.08
79131;BME280;70394;45.194;9.142;2023-07-24T00:51:15;100413.16;;;28.31;46.82
79131;BME280;70394;45.194;9.142;2023-07-24T00:53:41;100429.44;;;28.31;47.18
79131;BME280;70394;45.194;9.142;2023-07-24T00:56:07;100424.22;;;28.29;47.12
79131;BME280;70394;45.194;9.142;2023-07-24T00:58:33;100414.38;;;28.28;46.63
79131;BME280;70394;45.194;9.142;2023-07-24T01:00:59;100418.78;;;28.29;46.95
79131;BME280;70394;45.194;9.142;2023-07-24T01:03:35;100434.84;;;28.31;46.61
79131;BME280;70394;45.194;9.142;2023-07-24T01:06:03;100437.41;;;28.32;47.07
79131;BME280;70394;45.194;9.142;2023-07-24T01:08:29;100435.53;;;28.33;47.00
79131;BME280;70394;45.194;9.142;2023-07-24T01:10:57;100433.66;;;28.33;46.96
79131;BME280;70394;45.194;9.142;2023-07-24T01:13:25;100424.50;;;28.34;46.80
79131;BME280;70394;45.194;9.142;2023-07-24T01:16:02;100406.91;;;28.30;46.91
79131;BME280;70394;45.194;9.142;2023-07-24T01:18:30;100406.91;;;28.30;47.10
79131;BME280;70394;45.194;9.142;2023-07-24T01:20:57;100404.88;;;28.32;46.89
79131;BME280;70394;45.194;9.142;2023-07-24T01:26:11;100387.94;;;28.30;47.22
79131;BME280;70394;45.194;9.142;2023-07-24T01:28:37;100392.16;;;28.33;46.57
79131;BME280;70394;45.194;9.142;2023-07-24T01:31:04;100380.47;;;28.32;46.77
79131;BME280;70394;45.194;9.142;2023-07-24T01:33:30;100381.13;;;28.34;47.24
79131;BME280;70394;45.194;9.142;2023-07-24T01:35:59;100359.81;;;28.31;46.74
79131;BME280;70394;45.194;9.142;2023-07-24T01:38:26;100357.56;;;28.35;47.20
79131;BME280;70394;45.194;9.142;2023-07-24T01:40:53;100361.13;;;28.35;46.70
79131;BME280;70394;45.194;9.142;2023-07-24T01:43:19;100353.84;;;28.36;46.77
79131;BME280;70394;45.194;9.142;2023-07-24T01:45:44;100345.72;;;28.36;46.85
79131;BME280;70394;45.194;9.142;2023-07-24T01:48:09;100355.72;;;28.35;47.07
79131;BME280;70394;45.194;9.142;2023-07-24T01:50:35;100338.41;;;28.36;47.25
79131;BME280;70394;45.194;9.142;2023-07-24T01:53:00;100321.66;;;28.33;47.26
79131;BME280;70394;45.194;9.142;2023-07-24T01:55:25;100324.69;;;28.38;47.15
79131;BME280;70394;45.194;9.142;2023-07-24T01:57:51;100318.41;;;28.38;47.05
79131;BME280;70394;45.194;9.142;2023-07-24T02:00:16;100298.94;;;28.34;47.16
79131;BME280;70394;45.194;9.142;2023-07-24T02:02:41;100308.59;;;28.36;47.10
79131;BME280;70394;45.194;9.142;2023-07-24T02:05:07;100307.75;;;28.36;47.01
79131;BME280;70394;45.194;9.142;2023-07-24T02:07:33;100320.47;;;28.35;46.97
79131;BME280;70394;45.194;9.142;2023-07-24T02:09:58;100316.06;;;28.34;47.08
79131;BME280;70394;45.194;9.142;2023-07-24T02:12:23;100327.28;;;28.31;47.16
79131;BME280;70394;45.194;9.142;2023-07-24T02:14:49;100338.59;;;28.35;47.25
79131;BME280;70394;45.194;9.142;2023-07-24T02:17:19;100330.66;;;28.33;47.46
79131;BME280;70394;45.194;9.142;2023-07-24T02:19:44;100341.13;;;28.36;47.05
79131;BME280;70394;45.194;9.142;2023-07-24T02:22:10;100320.47;;;28.35;46.94
79131;BME280;70394;45.194;9.142;2023-07-24T02:24:36;100312.16;;;28.37;47.12
79131;BME280;70394;45.194;9.142;2023-07-24T02:27:01;100305.88;;;28.36;46.88
79131;BME280;70394;45.194;9.142;2023-07-24T02:29:27;100321.13;;;28.38;47.44
79131;BME280;70394;45.194;9.142;2023-07-24T02:31:57;100324.84;;;28.36;46.92
79131;BME280;70394;45.194;9.142;2023-07-24T02:34:23;100335.03;;;28.34;47.47
79131;BME280;70394;45.194;9.142;2023-07-24T02:36:52;100349.09;;;28.38;47.30
79131;BME280;70394;45.194;9.142;2023-07-24T02:39:18;100337.38;;;28.38;47.50
79131;BME280;70394;45.194;9.142;2023-07-24T02:41:43;100327.56;;;28.36;47.02
79131;BME280;70394;45.194;9.142;2023-07-24T02:44:08;100308.59;;;28.36;47.38
79131;BME280;70394;45.194;9.142;2023-07-24T02:46:34;100343.69;;;28.38;47.04
79131;BME280;70394;45.194;9.142;2023-07-24T02:48:59;100378.94;;;28.38;47.07
79131;BME280;70394;45.194;9.142;2023-07-24T02:51:24;100393.31;;;28.39;47.29
79131;BME280;70394;45.194;9.142;2023-07-24T02:53:50;100392.47;;;28.38;47.05
79131;BME280;70394;45.194;9.142;2023-07-24T02:56:15;100403.31;;;28.38;46.98
79131;BME280;70394;45.194;9.142;2023-07-24T02:58:40;100402.31;;;28.39;47.21
79131;BME280;70394;45.194;9.142;2023-07-24T03:01:07;100398.72;;;28.39;47.52
79131;BME280;70394;45.194;9.142;2023-07-24T03:03:33;100397.91;;;28.38;47.04
79131;BME280;70394;45.194;9.142;2023-07-24T03:05:59;100388.75;;;28.39;47.41
79131;BME280;70394;45.194;9.142;2023-07-24T03:08:25;100392.28;;;28.40;47.15
79131;BME280;70394;45.194;9.142;2023-07-24T03:10:50;100392.28;;;28.40;47.10
79131;BME280;70394;45.194;9.142;2023-07-24T03:13:16;100389.94;;;28.36;47.54
79131;BME280;70394;45.194;9.142;2023-07-24T03:15:41;100374.03;;;28.33;47.37
79131;BME280;70394;45.194;9.142;2023-07-24T03:18:06;100365.38;;;28.38;47.39
79131;BME280;70394;45.194;9.142;2023-07-24T03:20:32;100352.63;;;28.39;47.52
79131;BME280;70394;45.194;9.142;2023-07-24T03:22:57;100345.38;;;28.39;47.68
79131;BME280;70394;45.194;9.142;2023-07-24T03:25:22;100332.81;;;28.38;47.10
79131;BME280;70394;45.194;9.142;2023-07-24T03:27:48;100311.97;;;28.39;47.45
79131;BME280;70394;45.194;9.142;2023-07-24T03:30:13;100295.69;;;28.39;47.21
79131;BME280;70394;45.194;9.142;2023-07-24T03:32:39;100282.13;;;28.39;47.55
79131;BME280;70394;45.194;9.142;2023-07-24T03:35:05;100289.78;;;28.35;47.25
79131;BME280;70394;45.194;9.142;2023-07-24T03:37:31;100301.13;;;28.39;47.63
79131;BME280;70394;45.194;9.142;2023-07-24T03:39:56;100292.97;;;28.39;47.19
79131;BME280;70394;45.194;9.142;2023-07-24T03:42:26;100303.16;;;28.36;47.72
79131;BME280;70394;45.194;9.142;2023-07-24T03:44:52;100309.44;;;28.37;47.55
79131;BME280;70394;45.194;9.142;2023-07-24T03:47:17;100308.22;;;28.40;47.38
79131;BME280;70394;45.194;9.142;2023-07-24T03:49:43;100320.97;;;28.39;47.90
79131;BME280;70394;45.194;9.142;2023-07-24T03:52:08;100337.03;;;28.41;47.44
79131;BME280;70394;45.194;9.142;2023-07-24T03:54:33;100335.53;;;28.38;47.56
79131;BME280;70394;45.194;9.142;2023-07-24T03:56:59;100351.63;;;28.40;47.85
79131;BME280;70394;45.194;9.142;2023-07-24T03:59:24;100353.50;;;28.39;47.65
79131;BME280;70394;45.194;9.142;2023-07-24T04:01:49;100340.75;;;28.40;47.70
79131;BME280;70394;45.194;9.142;2023-07-24T04:04:15;100335.34;;;28.40;47.42
79131;BME280;70394;45.194;9.142;2023-07-24T04:06:40;100315.53;;;28.39;47.53
79131;BME280;70394;45.194;9.142;2023-07-24T04:09:06;100301.97;;;28.39;47.38
79131;BME280;70394;45.194;9.142;2023-07-24T04:11:31;100318.03;;;28.41;47.88
79131;BME280;70394;45.194;9.142;2023-07-24T04:13:56;100335.34;;;28.40;47.37
79131;BME280;70394;45.194;9.142;2023-07-24T04:16:22;100346.38;;;28.38;47.64
79131;BME280;70394;45.194;9.142;2023-07-24T04:18:47;100324.34;;;28.41;47.97
79131;BME280;70394;45.194;9.142;2023-07-24T04:21:12;100286.72;;;28.38;47.84
79131;BME280;70394;45.194;9.142;2023-07-24T04:23:38;100248.78;;;28.38;47.65
79131;BME280;70394;45.194;9.142;2023-07-24T04:26:03;100254.00;;;28.40;47.87
79131;BME280;70394;45.194;9.142;2023-07-24T04:28:28;100257.56;;;28.40;48.01
79131;BME280;70394;45.194;9.142;2023-07-24T04:30:54;100262.34;;;28.38;47.48
79131;BME280;70394;45.194;9.142;2023-07-24T04:33:19;100284.69;;;28.40;47.93
79131;BME280;70394;45.194;9.142;2023-07-24T04:35:47;100291.13;;;28.39;47.91
79131;BME280;70394;45.194;9.142;2023-07-24T04:38:13;100296.22;;;28.34;47.74
79131;BME280;70394;45.194;9.142;2023-07-24T04:40:39;100344.50;;;28.39;48.11
79131;BME280;70394;45.194;9.142;2023-07-24T04:43:04;100382.47;;;28.39;47.71
79131;BME280;70394;45.194;9.142;2023-07-24T04:45:29;100378.72;;;28.40;47.79
79131;BME280;70394;45.194;9.142;2023-07-24T04:47:55;100393.31;;;28.39;48.05
79131;BME280;70394;45.194;9.142;2023-07-24T04:50:20;100405.19;;;28.38;48.07
79131;BME280;70394;45.194;9.142;2023-07-24T04:52:45;100335.34;;;28.40;47.53
79131;BME280;70394;45.194;9.142;2023-07-24T04:55:11;100330.38;;;28.12;48.87
79131;BME280;70394;45.194;9.142;2023-07-24T04:57:36;100356.84;;;28.01;49.41
79131;BME280;70394;45.194;9.142;2023-07-24T05:00:01;100342.47;;;27.92;49.43
79131;BME280;70394;45.194;9.142;2023-07-24T05:02:27;100325.72;;;27.89;49.85
79131;BME280;70394;45.194;9.142;2023-07-24T05:04:52;100321.16;;;27.81;50.26
79131;BME280;70394;45.194;9.142;2023-07-24T05:07:18;100280.88;;;27.78;50.61
79131;BME280;70394;45.194;9.142;2023-07-24T05:09:43;100268.53;;;27.75;51.09
79131;BME280;70394;45.194;9.142;2023-07-24T05:12:08;100291.56;;;27.71;51.49
79131;BME280;70394;45.194;9.142;2023-07-24T05:14:34;100286.50;;;27.68;51.40
79131;BME280;70394;45.194;9.142;2023-07-24T05:16:59;100272.31;;;27.66;51.57
79131;BME280;70394;45.194;9.142;2023-07-24T05:19:24;100267.91;;;27.57;52.27
79131;BME280;70394;45.194;9.142;2023-07-24T05:21:50;100255.72;;;27.61;52.35
79131;BME280;70394;45.194;9.142;2023-07-24T05:24:15;100258.59;;;27.59;52.45
79131;BME280;70394;45.194;9.142;2023-07-24T05:26:41;100257.75;;;27.67;52.24
79131;BME280;70394;45.194;9.142;2023-07-24T05:29:06;100261.97;;;27.70;52.52
79131;BME280;70394;45.194;9.142;2023-07-24T05:31:34;100274.66;;;27.69;52.45
79131;BME280;70394;45.194;9.142;2023-07-24T05:33:59;100275.84;;;27.66;52.64
79131;BME280;70394;45.194;9.142;2023-07-24T05:36:24;100288.91;;;27.63;53.06
79131;BME280;70394;45.194;9.142;2023-07-24T05:38:51;100264.53;;;27.63;52.73
79131;BME280;70394;45.194;9.142;2023-07-24T05:41:17;100245.91;;;27.60;52.85
79131;BME280;70394;45.194;9.142;2023-07-24T05:43:42;100242.00;;;27.62;53.08
79131;BME280;70394;45.194;9.142;2023-07-24T05:46:07;100221.88;;;27.57;53.35
79131;BME280;70394;45.194;9.142;2023-07-24T05:48:33;100207.66;;;27.63;53.05
79131;BME280;70394;45.194;9.142;2023-07-24T05:50:58;100196.13;;;27.61;53.51
79131;BME280;70394;45.194;9.142;2023-07-24T05:53:23;100169.06;;;27.61;53.56
79131;BME280;70394;45.194;9.142;2023-07-24T05:55:59;100169.75;;;27.63;53.66
79131;BME280;70394;45.194;9.142;2023-07-24T05:58:25;100194.94;;;27.63;53.46
79131;BME280;70394;45.194;9.142;2023-07-24T06:00:50;100192.75;;;27.59;53.64
79131;BME280;70394;45.194;9.142;2023-07-24T06:03:15;100185.28;;;27.61;53.59
79131;BME280;70394;45.194;9.142;2023-07-24T06:05:41;100194.44;;;27.60;53.83
79131;BME280;70394;45.194;9.142;2023-07-24T06:08:06;100206.81;;;27.62;53.71
79131;BME280;70394;45.194;9.142;2023-07-24T06:10:34;100248.28;;;27.55;54.35
79131;BME280;70394;45.194;9.142;2023-07-24T06:12:59;100293.16;;;27.57;54.39
79131;BME280;70394;45.194;9.142;2023-07-24T06:15:24;100306.50;;;27.59;54.12
79131;BME280;70394;45.194;9.142;2023-07-24T06:17:50;100295.84;;;27.57;54.26
79131;BME280;70394;45.194;9.142;2023-07-24T06:20:15;100319.38;;;27.57;54.25
79131;BME280;70394;45.194;9.142;2023-07-24T06:22:41;100337.31;;;27.58;54.34
79131;BME280;70394;45.194;9.142;2023-07-24T06:25:07;100345.78;;;27.55;54.67
79131;BME280;70394;45.194;9.142;2023-07-24T06:27:32;100323.09;;;27.56;54.87
79131;BME280;70394;45.194;9.142;2023-07-24T06:29:58;100304.81;;;27.58;54.28
79131;BME280;70394;45.194;9.142;2023-07-24T06:32:23;100289.94;;;27.62;54.68
79131;BME280;70394;45.194;9.142;2023-07-24T06:34:48;100284.97;;;27.65;54.19
79131;BME280;70394;45.194;9.142;2023-07-24T06:37:14;100276.50;;;27.69;54.07
79131;BME280;70394;45.194;9.142;2023-07-24T06:39:39;100271.28;;;27.67;54.25
79131;BME280;70394;45.194;9.142;2023-07-24T06:42:04;100269.91;;;27.71;54.58
79131;BME280;70394;45.194;9.142;2023-07-24T06:44:30;100237.91;;;27.66;54.57
79131;BME280;70394;45.194;9.142;2023-07-24T06:46:55;100235.72;;;27.70;54.57
79131;BME280;70394;45.194;9.142;2023-07-24T06:49:20;100221.81;;;27.73;54.12
79131;BME280;70394;45.194;9.142;2023-07-24T06:51:46;100221.34;;;27.70;54.17
79131;BME280;70394;45.194;9.142;2023-07-24T06:54:11;100216.03;;;27.76;53.45
79131;BME280;70394;45.194;9.142;2023-07-24T06:56:37;100216.72;;;27.78;53.98
79131;BME280;70394;45.194;9.142;2023-07-24T06:59:02;100222.81;;;27.80;54.31
79131;BME280;70394;45.194;9.142;2023-07-24T07:01:27;100247.00;;;27.82;54.10
79131;BME280;70394;45.194;9.142;2023-07-24T07:03:53;100269.88;;;27.79;54.58
79131;BME280;70394;45.194;9.142;2023-07-24T07:06:18;100258.03;;;27.72;54.41
79131;BME280;70394;45.194;9.142;2023-07-24T07:08:43;100252.94;;;27.77;54.20
79131;BME280;70394;45.194;9.142;2023-07-24T07:11:09;100254.66;;;27.78;54.99
79131;BME280;70394;45.194;9.142;2023-07-24T07:13:34;100261.22;;;27.84;54.17
79131;BME280;70394;45.194;9.142;2023-07-24T07:15:59;100262.06;;;27.85;54.69
79131;BME280;70394;45.194;9.142;2023-07-24T07:18:25;100283.03;;;27.91;54.63
79131;BME280;70394;45.194;9.142;2023-07-24T07:20:52;100301.03;;;27.84;54.92
79131;BME280;70394;45.194;9.142;2023-07-24T07:23:18;100321.22;;;27.73;55.02
79131;BME280;70394;45.194;9.142;2023-07-24T07:25:44;100329.13;;;27.74;55.39
79131;BME280;70394;45.194;9.142;2023-07-24T07:28:13;100328.81;;;27.69;55.48
79131;BME280;70394;45.194;9.142;2023-07-24T07:30:39;100313.59;;;27.60;55.95
79131;BME280;70394;45.194;9.142;2023-07-24T07:33:04;100313.09;;;27.64;55.86
79131;BME280;70394;45.194;9.142;2023-07-24T07:35:31;100303.63;;;27.60;55.94
79131;BME280;70394;45.194;9.142;2023-07-24T07:37:57;100288.38;;;27.51;56.74
79131;BME280;70394;45.194;9.142;2023-07-24T07:40:23;100281.00;;;27.36;56.92
79131;BME280;70394;45.194;9.142;2023-07-24T07:42:48;100270.47;;;27.42;57.09
79131;BME280;70394;45.194;9.142;2023-07-24T07:45:14;100274.88;;;27.43;57.12
79131;BME280;70394;45.194;9.142;2023-07-24T07:47:39;100287.72;;;27.57;56.65
79131;BME280;70394;45.194;9.142;2023-07-24T07:50:05;100293.66;;;27.52;56.55
79131;BME280;70394;45.194;9.142;2023-07-24T07:52:30;100302.09;;;27.66;56.52
79131;BME280;70394;45.194;9.142;2023-07-24T07:54:56;100301.75;;;27.61;56.15
79131;BME280;70394;45.194;9.142;2023-07-24T07:57:21;100300.56;;;27.72;55.98
79131;BME280;70394;45.194;9.142;2023-07-24T07:59:46;100314.41;;;27.77;56.25
79131;BME280;70394;45.194;9.142;2023-07-24T08:02:12;100332.88;;;27.82;55.40
79131;BME280;70394;45.194;9.142;2023-07-24T08:04:37;100341.50;;;27.77;55.88
79131;BME280;70394;45.194;9.142;2023-07-24T08:07:03;100354.84;;;27.87;56.46
79131;BME280;70394;45.194;9.142;2023-07-24T08:09:28;100360.94;;;27.89;55.09
79131;BME280;70394;45.194;9.142;2023-07-24T08:11:54;100368.56;;;27.85;55.57
79131;BME280;70394;45.194;9.142;2023-07-24T08:14:19;100368.75;;;27.84;55.04
79131;BME280;70394;45.194;9.142;2023-07-24T08:16:47;100373.81;;;27.87;56.80
79131;BME280;70394;45.194;9.142;2023-07-24T08:19:13;100381.63;;;27.82;57.07
79131;BME280;70394;45.194;9.142;2023-07-24T08:21:38;100381.28;;;27.85;56.77
79131;BME280;70394;45.194;9.142;2023-07-24T08:24:04;100381.59;;;27.90;57.79
79131;BME280;70394;45.194;9.142;2023-07-24T08:26:30;100373.09;;;27.93;55.62
79131;BME280;70394;45.194;9.142;2023-07-24T08:28:55;100368.53;;;27.93;57.34
79131;BME280;70394;45.194;9.142;2023-07-24T08:31:20;100356.03;;;27.92;57.68
79131;BME280;70394;45.194;9.142;2023-07-24T08:33:46;100350.44;;;27.86;56.46
79131;BME280;70394;45.194;9.142;2023-07-24T08:36:11;100343.53;;;27.75;57.50
79131;BME280;70394;45.194;9.142;2023-07-24T08:38:37;100341.34;;;27.78;55.50
79131;BME280;70394;45.194;9.142;2023-07-24T08:41:03;100345.38;;;27.83;58.00
79131;BME280;70394;45.194;9.142;2023-07-24T08:43:30;100344.69;;;27.89;57.08
79131;BME280;70394;45.194;9.142;2023-07-24T08:45:59;100359.94;;;27.82;57.59
79131;BME280;70394;45.194;9.142;2023-07-24T08:48:39;100373.16;;;27.85;57.74
79131;BME280;70394;45.194;9.142;2023-07-24T08:51:06;100380.56;;;27.91;57.72
79131;BME280;70394;45.194;9.142;2023-07-24T08:53:33;100375.66;;;27.94;57.44
79131;BME280;70394;45.194;9.142;2023-07-24T08:56:02;100349.59;;;27.93;57.00
79131;BME280;70394;45.194;9.142;2023-07-24T08:58:28;100350.41;;;27.94;57.02
79131;BME280;70394;45.194;9.142;2023-07-24T09:00:53;100354.84;;;27.95;56.99
79131;BME280;70394;45.194;9.142;2023-07-24T09:03:19;100334.81;;;28.04;56.55
79131;BME280;70394;45.194;9.142;2023-07-24T09:05:45;100314.66;;;27.99;56.67
79131;BME280;70394;45.194;9.142;2023-07-24T09:08:11;100284.06;;;27.90;57.41
79131;BME280;70394;45.194;9.142;2023-07-24T09:10:36;100273.19;;;27.98;57.24
79131;BME280;70394;45.194;9.142;2023-07-24T09:13:02;100259.44;;;28.00;58.09
79131;BME280;70394;45.194;9.142;2023-07-24T09:15:39;100257.75;;;27.99;57.76
79131;BME280;70394;45.194;9.142;2023-07-24T09:18:04;100254.88;;;28.00;58.42
79131;BME280;70394;45.194;9.142;2023-07-24T09:20:40;100228.63;;;28.01;56.92
79131;BME280;70394;45.194;9.142;2023-07-24T09:23:07;100220.97;;;28.04;58.43
79131;BME280;70394;45.194;9.142;2023-07-24T09:25:34;100211.81;;;28.05;58.49
79131;BME280;70394;45.194;9.142;2023-07-24T09:28:00;100210.66;;;28.00;57.41
79131;BME280;70394;45.194;9.142;2023-07-24T09:30:25;100204.06;;;28.02;58.14
79131;BME280;70394;45.194;9.142;2023-07-24T09:32:54;100209.13;;;28.05;56.39
79131;BME280;70394;45.194;9.142;2023-07-24T09:35:20;100203.03;;;28.03;56.90
79131;BME280;70394;45.194;9.142;2023-07-24T09:37:47;100215.06;;;28.01;57.32
79131;BME280;70394;45.194;9.142;2023-07-24T09:40:14;100214.91;;;28.02;58.50
79131;BME280;70394;45.194;9.142;2023-07-24T09:42:40;100197.09;;;28.08;58.56
79131;BME280;70394;45.194;9.142;2023-07-24T09:45:07;100177.63;;;28.04;58.10
79131;BME280;70394;45.194;9.142;2023-07-24T09:47:35;100156.66;;;27.98;59.44
79131;BME280;70394;45.194;9.142;2023-07-24T09:50:03;100124.94;;;27.84;60.00
79131;BME280;70394;45.194;9.142;2023-07-24T09:52:30;100134.63;;;28.01;58.87
79131;BME280;70394;45.194;9.142;2023-07-24T09:54:59;100130.59;;;27.97;59.40
79131;BME280;70394;45.194;9.142;2023-07-24T09:57:26;100131.91;;;28.01;59.78
79131;BME280;70394;45.194;9.142;2023-07-24T09:59:53;100150.53;;;28.04;59.64
79131;BME280;70394;45.194;9.142;2023-07-24T10:02:19;100164.94;;;28.05;60.39
79131;BME280;70394;45.194;9.142;2023-07-24T10:04:46;100138.53;;;27.99;60.05
79131;BME280;70394;45.194;9.142;2023-07-24T10:07:13;100177.63;;;28.04;60.74
79131;BME280;70394;45.194;9.142;2023-07-24T10:09:39;100201.66;;;28.07;60.20
79131;BME280;70394;45.194;9.142;2023-07-24T10:12:05;100205.72;;;28.12;60.24
79131;BME280;70394;45.194;9.142;2023-07-24T10:14:30;100150.47;;;28.13;58.89
79131;BME280;70394;45.194;9.142;2023-07-24T10:16:56;100120.34;;;28.07;59.69
79131;BME280;70394;45.194;9.142;2023-07-24T10:19:22;100170.13;;;28.15;59.30
79131;BME280;70394;45.194;9.142;2023-07-24T10:21:49;100200.09;;;28.13;59.37
79131;BME280;70394;45.194;9.142;2023-07-24T10:24:15;100192.16;;;28.12;59.01
79131;BME280;70394;45.194;9.142;2023-07-24T10:26:41;100211.78;;;28.14;58.21
79131;BME280;70394;45.194;9.142;2023-07-24T10:29:06;100211.97;;;28.12;58.69
79131;BME280;70394;45.194;9.142;2023-07-24T10:31:32;100217.88;;;28.16;59.17
79131;BME280;70394;45.194;9.142;2023-07-24T10:34:06;100229.09;;;28.13;58.59
79131;BME280;70394;45.194;9.142;2023-07-24T10:36:36;100240.25;;;28.18;59.69
79131;BME280;70394;45.194;9.142;2023-07-24T10:39:13;100236.53;;;28.19;59.49
79131;BME280;70394;45.194;9.142;2023-07-24T10:41:38;100196.50;;;28.21;59.34
79131;BME280;70394;45.194;9.142;2023-07-24T10:44:05;100172.97;;;28.21;58.33
79131;BME280;70394;45.194;9.142;2023-07-24T10:46:38;100207.56;;;28.19;60.46
79131;BME280;70394;45.194;9.142;2023-07-24T10:49:03;100211.09;;;28.20;60.47
79131;BME280;70394;45.194;9.142;2023-07-24T10:51:29;100204.72;;;28.04;61.39
79131;BME280;70394;45.194;9.142;2023-07-24T10:53:57;100198.78;;;28.09;61.00
79131;BME280;70394;45.194;9.142;2023-07-24T10:56:24;100236.00;;;28.15;61.26
79131;BME280;70394;45.194;9.142;2023-07-24T10:58:49;100177.47;;;28.06;62.74
79131;BME280;70394;45.194;9.142;2023-07-24T11:01:15;100147.19;;;27.94;62.72
79131;BME280;70394;45.194;9.142;2023-07-24T11:03:42;100146.78;;;28.05;62.51
79131;BME280;70394;45.194;9.142;2023-07-24T11:06:18;100121.69;;;28.12;63.20
79131;BME280;70394;45.194;9.142;2023-07-24T11:08:54;100155.03;;;28.12;63.31
79131;BME280;70394;45.194;9.142;2023-07-24T11:11:21;100155.38;;;28.17;63.11
79131;BME280;70394;45.194;9.142;2023-07-24T11:13:47;100134.84;;;28.23;62.80
79131;BME280;70394;45.194;9.142;2023-07-24T11:16:13;100146.69;;;28.22;63.02
79131;BME280;70394;45.194;9.142;2023-07-24T11:18:45;100160.25;;;28.22;63.61
79131;BME280;70394;45.194;9.142;2023-07-24T11:21:12;100111.84;;;28.19;63.57
79131;BME280;70394;45.194;9.142;2023-07-24T11:23:37;100083.53;;;28.21;63.81
79131;BME280;70394;45.194;9.142;2023-07-24T11:26:04;100099.41;;;28.25;63.27
79131;BME280;70394;45.194;9.142;2023-07-24T11:28:39;100049.13;;;28.22;64.07
79131;BME280;70394;45.194;9.142;2023-07-24T11:31:05;100018.28;;;28.23;63.81
79131;BME280;70394;45.194;9.142;2023-07-24T11:33:30;100043.91;;;28.20;63.29
79131;BME280;70394;45.194;9.142;2023-07-24T11:35:56;100029.78;;;28.25;63.27
79131;BME280;70394;45.194;9.142;2023-07-24T11:38:21;100032.69;;;28.24;63.72
79131;BME280;70394;45.194;9.142;2023-07-24T11:40:47;100018.59;;;28.28;64.20
79131;BME280;70394;45.194;9.142;2023-07-24T11:43:20;99986.72;;;28.30;63.70
79131;BME280;70394;45.194;9.142;2023-07-24T11:45:47;99987.53;;;28.31;62.99
79131;BME280;70394;45.194;9.142;2023-07-24T11:48:20;100000.59;;;28.27;62.30
79131;BME280;70394;45.194;9.142;2023-07-24T11:50:48;100038.56;;;28.27;63.17
79131;BME280;70394;45.194;9.142;2023-07-24T11:53:43;100060.56;;;28.32;63.29
79131;BME280;70394;45.194;9.142;2023-07-24T11:56:14;100077.47;;;28.34;64.02
79131;BME280;70394;45.194;9.142;2023-07-24T11:58:40;100099.59;;;28.23;64.68
79131;BME280;70394;45.194;9.142;2023-07-24T12:01:05;100117.25;;;28.19;65.08
79131;BME280;70394;45.194;9.142;2023-07-24T12:03:30;100114.84;;;28.24;63.82
79131;BME280;70394;45.194;9.142;2023-07-24T12:05:56;100122.41;;;28.29;63.46
79131;BME280;70394;45.194;9.142;2023-07-24T12:08:31;100125.31;;;28.27;63.47
79131;BME280;70394;45.194;9.142;2023-07-24T12:10:58;100142.69;;;28.18;62.71
79131;BME280;70394;45.194;9.142;2023-07-24T12:13:23;100126.41;;;28.18;62.82
79131;BME280;70394;45.194;9.142;2023-07-24T12:15:49;100133.84;;;28.16;63.11
79131;BME280;70394;45.194;9.142;2023-07-24T12:18:15;100133.00;;;28.15;62.68
79131;BME280;70394;45.194;9.142;2023-07-24T12:20:40;100137.09;;;28.19;62.23
79131;BME280;70394;45.194;9.142;2023-07-24T12:23:06;100133.19;;;28.14;62.27
79131;BME280;70394;45.194;9.142;2023-07-24T12:25:31;100119.31;;;28.17;62.46
79131;BME280;70394;45.194;9.142;2023-07-24T12:27:56;100092.19;;;28.17;62.75
79131;BME280;70394;45.194;9.142;2023-07-24T12:30:22;100091.19;;;28.18;61.24
79131;BME280;70394;45.194;9.142;2023-07-24T12:32:47;100082.03;;;28.11;60.87
79131;BME280;70394;45.194;9.142;2023-07-24T12:35:13;100116.41;;;28.18;61.57
79131;BME280;70394;45.194;9.142;2023-07-24T12:37:38;100103.34;;;28.22;60.84
79131;BME280;70394;45.194;9.142;2023-07-24T12:40:08;100091.00;;;28.19;61.35
79131;BME280;70394;45.194;9.142;2023-07-24T12:42:33;100097.25;;;28.20;61.45
79131;BME280;70394;45.194;9.142;2023-07-24T12:44:59;100074.41;;;28.14;61.49
79131;BME280;70394;45.194;9.142;2023-07-24T12:47:24;100069.19;;;28.13;62.83